sensor_id;sensor_type;location;lat;lon;timestamp;pressure;altitude;pressure_sealevel;temperature;humidity
72120;BME280;59993;53.052;18.576;2022-09-02T11:53:29;101508.88;;;17.77;57.45
72120;BME280;59993;53.052;18.576;2022-09-02T11:56:06;101502.00;;;17.84;58.06
72120;BME280;59993;53.052;18.576;2022-09-02T11:58:37;101511.16;;;17.61;57.92
72120;BME280;59993;53.052;18.576;2022-09-02T12:01:24;101505.81;;;17.39;56.67
72120;BME280;59993;53.052;18.576;2022-09-02T12:12:08;101492.13;;;17.21;59.11
72120;BME280;59993;53.052;18.576;2022-09-02T12:17:32;101491.22;;;17.53;56.24
72120;BME280;59993;53.052;18.576;2022-09-02T12:20:07;101486.50;;;17.67;55.24
72120;BME280;59993;53.052;18.576;2022-09-02T12:22:35;101488.09;;;17.48;57.44
72120;BME280;59993;53.052;18.576;2022-09-02T12:25:40;101476.97;;;17.84;56.54
72120;BME280;59993;53.052;18.576;2022-09-02T12:28:14;101469.06;;;17.82;56.12
72120;BME280;59993;53.052;18.576;2022-09-02T12:33:46;101472.31;;;18.07;54.11
72120;BME280;59993;53.052;18.576;2022-09-02T12:57:49;101464.75;;;18.32;55.42
72120;BME280;59993;53.052;18.576;2022-09-02T13:31:28;101462.56;;;17.75;58.10
72120;BME280;59993;53.052;18.576;2022-09-02T13:34:04;101471.28;;;17.67;59.19
72120;BME280;59993;53.052;18.576;2022-09-02T13:36:35;101457.13;;;17.65;59.84
72120;BME280;59993;53.052;18.576;2022-09-02T13:39:18;101460.16;;;17.72;59.89
72120;BME280;59993;53.052;18.576;2022-09-02T13:41:44;101452.59;;;17.66;61.43
72120;BME280;59993;53.052;18.576;2022-09-02T13:44:11;101453.25;;;17.79;60.66
72120;BME280;59993;53.052;18.576;2022-09-02T13:46:51;101456.03;;;17.68;59.76
72120;BME280;59993;53.052;18.576;2022-09-02T13:49:26;101441.66;;;17.69;60.30
72120;BME280;59993;53.052;18.576;2022-09-02T13:51:54;101438.84;;;17.80;60.72
72120;BME280;59993;53.052;18.576;2022-09-02T13:54:47;101440.28;;;17.84;60.22
72120;BME280;59993;53.052;18.576;2022-09-02T13:57:19;101435.19;;;17.81;60.20
72120;BME280;59993;53.052;18.576;2022-09-02T13:59:48;101439.50;;;17.93;60.41
72120;BME280;59993;53.052;18.576;2022-09-02T14:02:34;101433.91;;;17.85;60.28
72120;BME280;59993;53.052;18.576;2022-09-02T14:05:05;101431.78;;;17.79;60.34
72120;BME280;59993;53.052;18.576;2022-09-02T14:07:40;101440.09;;;17.76;60.54
72120;BME280;59993;53.052;18.576;2022-09-02T14:10:10;101451.50;;;17.68;59.35
72120;BME280;59993;53.052;18.576;2022-09-02T14:12:37;101440.22;;;17.65;60.59
72120;BME280;59993;53.052;18.576;2022-09-02T14:15:06;101438.31;;;17.55;59.36
72120;BME280;59993;53.052;18.576;2022-09-02T14:17:32;101432.88;;;17.67;59.75
72120;BME280;59993;53.052;18.576;2022-09-02T14:20:17;101431.06;;;17.67;59.47
72120;BME280;59993;53.052;18.576;2022-09-02T14:22:46;101423.38;;;17.63;60.35
72120;BME280;59993;53.052;18.576;2022-09-02T14:25:16;101427.09;;;17.71;60.48
72120;BME280;59993;53.052;18.576;2022-09-02T14:27:53;101426.16;;;17.82;58.64
72120;BME280;59993;53.052;18.576;2022-09-02T14:30:34;101426.38;;;17.90;57.40
72120;BME280;59993;53.052;18.576;2022-09-02T14:33:24;101425.09;;;17.94;56.65
72120;BME280;59993;53.052;18.576;2022-09-02T14:43:47;101421.31;;;17.66;57.10
72120;BME280;59993;53.052;18.576;2022-09-02T14:46:27;101428.69;;;17.84;56.05
72120;BME280;59993;53.052;18.576;2022-09-02T14:51:26;101427.34;;;17.89;57.20
72120;BME280;59993;53.052;18.576;2022-09-02T14:53:55;101422.22;;;17.86;56.90
72120;BME280;59993;53.052;18.576;2022-09-02T14:56:47;101421.16;;;17.99;55.81
72120;BME280;59993;53.052;18.576;2022-09-02T14:59:13;101420.00;;;17.91;55.69
72120;BME280;59993;53.052;18.576;2022-09-02T15:01:40;101423.94;;;17.87;56.34
72120;BME280;59993;53.052;18.576;2022-09-02T15:04:08;101423.03;;;17.77;58.50
72120;BME280;59993;53.052;18.576;2022-09-02T15:06:34;101426.88;;;17.84;56.66
72120;BME280;59993;53.052;18.576;2022-09-02T15:09:00;101420.25;;;17.88;57.38
72120;BME280;59993;53.052;18.576;2022-09-02T15:11:25;101425.59;;;17.88;57.54
72120;BME280;59993;53.052;18.576;2022-09-02T15:13:51;101418.31;;;17.90;57.53
72120;BME280;59993;53.052;18.576;2022-09-02T15:16:16;101406.81;;;17.88;59.43
72120;BME280;59993;53.052;18.576;2022-09-02T15:18:42;101420.88;;;17.92;57.95
72120;BME280;59993;53.052;18.576;2022-09-02T15:21:07;101411.28;;;17.99;56.96
72120;BME280;59993;53.052;18.576;2022-09-02T15:23:33;101408.47;;;18.01;57.79
72120;BME280;59993;53.052;18.576;2022-09-02T15:26:02;101415.41;;;17.72;58.98
72120;BME280;59993;53.052;18.576;2022-09-02T15:28:27;101407.09;;;17.75;57.08
72120;BME280;59993;53.052;18.576;2022-09-02T15:31:01;101409.78;;;17.85;57.83
72120;BME280;59993;53.052;18.576;2022-09-02T15:33:27;101404.41;;;17.75;57.00
72120;BME280;59993;53.052;18.576;2022-09-02T15:35:54;101402.97;;;17.71;56.33
72120;BME280;59993;53.052;18.576;2022-09-02T15:38:19;101409.91;;;17.74;57.95
72120;BME280;59993;53.052;18.576;2022-09-02T15:40:45;101406.66;;;17.70;58.65
72120;BME280;59993;53.052;18.576;2022-09-02T15:43:11;101421.88;;;17.70;57.35
72120;BME280;59993;53.052;18.576;2022-09-02T15:45:43;101413.38;;;17.65;57.98
72120;BME280;59993;53.052;18.576;2022-09-02T15:48:11;101417.31;;;17.61;57.84
72120;BME280;59993;53.052;18.576;2022-09-02T15:50:36;101411.13;;;17.70;58.97
72120;BME280;59993;53.052;18.576;2022-09-02T15:53:02;101406.59;;;17.61;59.69
72120;BME280;59993;53.052;18.576;2022-09-02T15:55:31;101405.47;;;17.63;58.94
72120;BME280;59993;53.052;18.576;2022-09-02T15:57:57;101406.03;;;17.57;59.08
72120;BME280;59993;53.052;18.576;2022-09-02T16:00:23;101404.00;;;17.49;59.63
72120;BME280;59993;53.052;18.576;2022-09-02T16:02:50;101410.50;;;17.56;59.48
72120;BME280;59993;53.052;18.576;2022-09-02T16:05:15;101411.31;;;17.47;59.67
72120;BME280;59993;53.052;18.576;2022-09-02T16:07:41;101416.53;;;17.49;60.10
72120;BME280;59993;53.052;18.576;2022-09-02T16:10:07;101410.50;;;17.56;61.72
72120;BME280;59993;53.052;18.576;2022-09-02T16:12:33;101403.06;;;17.60;61.47
72120;BME280;59993;53.052;18.576;2022-09-02T16:14:58;101399.09;;;17.54;61.61
72120;BME280;59993;53.052;18.576;2022-09-02T16:17:24;101411.59;;;17.44;61.55
72120;BME280;59993;53.052;18.576;2022-09-02T16:19:49;101405.53;;;17.42;61.74
72120;BME280;59993;53.052;18.576;2022-09-02T16:22:15;101398.31;;;17.43;62.72
72120;BME280;59993;53.052;18.576;2022-09-02T16:24:40;101416.03;;;17.34;62.66
72120;BME280;59993;53.052;18.576;2022-09-02T16:27:06;101405.00;;;17.27;63.75
72120;BME280;59993;53.052;18.576;2022-09-02T16:29:31;101408.09;;;17.22;63.48
72120;BME280;59993;53.052;18.576;2022-09-02T16:31:57;101411.69;;;17.12;63.00
72120;BME280;59993;53.052;18.576;2022-09-02T16:34:23;101403.91;;;17.30;62.49
72120;BME280;59993;53.052;18.576;2022-09-02T16:36:49;101400.06;;;17.22;63.58
72120;BME280;59993;53.052;18.576;2022-09-02T16:39:15;101401.94;;;17.32;63.42
72120;BME280;59993;53.052;18.576;2022-09-02T16:41:46;101400.31;;;17.19;64.59
72120;BME280;59993;53.052;18.576;2022-09-02T16:44:24;101402.56;;;17.14;64.22
72120;BME280;59993;53.052;18.576;2022-09-02T16:46:51;101398.88;;;16.94;65.49
72120;BME280;59993;53.052;18.576;2022-09-02T16:49:19;101406.19;;;16.92;66.05
72120;BME280;59993;53.052;18.576;2022-09-02T16:51:47;101395.75;;;16.89;65.85
72120;BME280;59993;53.052;18.576;2022-09-02T16:54:14;101394.72;;;16.69;66.15
72120;BME280;59993;53.052;18.576;2022-09-02T16:56:40;101390.41;;;16.57;67.26
72120;BME280;59993;53.052;18.576;2022-09-02T16:59:10;101394.56;;;16.49;68.04
72120;BME280;59993;53.052;18.576;2022-09-02T17:01:37;101391.31;;;16.34;68.09
72120;BME280;59993;53.052;18.576;2022-09-02T17:04:05;101399.72;;;16.30;68.94
72120;BME280;59993;53.052;18.576;2022-09-02T17:06:31;101404.75;;;16.23;68.49
72120;BME280;59993;53.052;18.576;2022-09-02T17:08:57;101396.88;;;15.99;70.37
72120;BME280;59993;53.052;18.576;2022-09-02T17:11:30;101399.81;;;15.96;70.13
72120;BME280;59993;53.052;18.576;2022-09-02T17:17:07;101395.44;;;15.84;69.55
72120;BME280;59993;53.052;18.576;2022-09-02T17:20:08;101405.91;;;15.87;70.28
72120;BME280;59993;53.052;18.576;2022-09-02T17:23:08;101411.00;;;15.78;70.74
72120;BME280;59993;53.052;18.576;2022-09-02T17:25:53;101399.53;;;15.65;71.81
72120;BME280;59993;53.052;18.576;2022-09-02T17:37:51;101402.19;;;15.20;73.13
72120;BME280;59993;53.052;18.576;2022-09-02T17:40:51;101404.34;;;15.03;75.69
72120;BME280;59993;53.052;18.576;2022-09-02T17:43:45;101407.97;;;15.02;75.57
72120;BME280;59993;53.052;18.576;2022-09-02T17:46:10;101412.31;;;14.92;75.91
72120;BME280;59993;53.052;18.576;2022-09-02T17:48:35;101421.72;;;14.85;76.19
72120;BME280;59993;53.052;18.576;2022-09-02T17:51:01;101413.69;;;14.73;74.95
72120;BME280;59993;53.052;18.576;2022-09-02T17:53:27;101417.19;;;14.63;77.03
72120;BME280;59993;53.052;18.576;2022-09-02T17:56:01;101422.31;;;14.53;77.20
72120;BME280;59993;53.052;18.576;2022-09-02T17:58:33;101421.78;;;14.61;76.31
72120;BME280;59993;53.052;18.576;2022-09-02T18:01:05;101426.78;;;14.52;77.90
72120;BME280;59993;53.052;18.576;2022-09-02T18:06:20;101420.50;;;14.29;79.37
72120;BME280;59993;53.052;18.576;2022-09-02T18:08:57;101419.44;;;14.19;79.29
72120;BME280;59993;53.052;18.576;2022-09-02T18:11:25;101427.06;;;14.12;80.27
72120;BME280;59993;53.052;18.576;2022-09-02T18:16:51;101440.97;;;13.92;81.63
72120;BME280;59993;53.052;18.576;2022-09-02T18:22:12;101429.78;;;13.48;84.22
72120;BME280;59993;53.052;18.576;2022-09-02T18:30:11;101436.41;;;13.55;83.01
72120;BME280;59993;53.052;18.576;2022-09-02T18:38:25;101444.31;;;13.44;82.27
72120;BME280;59993;53.052;18.576;2022-09-02T18:46:44;101433.66;;;12.91;86.23
72120;BME280;59993;53.052;18.576;2022-09-02T18:49:13;101434.59;;;12.77;87.40
72120;BME280;59993;53.052;18.576;2022-09-02T18:51:43;101448.94;;;12.74;88.37
72120;BME280;59993;53.052;18.576;2022-09-02T18:54:17;101437.50;;;12.59;87.98
72120;BME280;59993;53.052;18.576;2022-09-02T18:57:04;101445.56;;;12.58;88.49
72120;BME280;59993;53.052;18.576;2022-09-02T19:00:00;101445.88;;;12.53;88.87
72120;BME280;59993;53.052;18.576;2022-09-02T19:02:34;101436.25;;;12.38;89.33
72120;BME280;59993;53.052;18.576;2022-09-02T19:05:03;101435.31;;;12.24;90.21
72120;BME280;59993;53.052;18.576;2022-09-02T19:07:33;101437.88;;;12.26;90.24
72120;BME280;59993;53.052;18.576;2022-09-02T19:10:17;101443.50;;;12.21;90.09
72120;BME280;59993;53.052;18.576;2022-09-02T19:12:43;101431.22;;;12.33;89.10
72120;BME280;59993;53.052;18.576;2022-09-02T19:15:10;101423.06;;;12.22;89.38
72120;BME280;59993;53.052;18.576;2022-09-02T19:17:37;101430.78;;;12.12;89.87
72120;BME280;59993;53.052;18.576;2022-09-02T19:20:04;101432.63;;;12.12;89.14
72120;BME280;59993;53.052;18.576;2022-09-02T19:22:31;101433.06;;;12.18;89.17
72120;BME280;59993;53.052;18.576;2022-09-02T19:25:02;101434.78;;;12.05;88.66
72120;BME280;59993;53.052;18.576;2022-09-02T19:27:33;101429.88;;;11.84;90.32
72120;BME280;59993;53.052;18.576;2022-09-02T19:30:06;101442.19;;;11.85;90.38
72120;BME280;59993;53.052;18.576;2022-09-02T19:32:34;101440.28;;;11.73;92.12
72120;BME280;59993;53.052;18.576;2022-09-02T19:35:05;101444.06;;;11.69;92.52
72120;BME280;59993;53.052;18.576;2022-09-02T19:37:44;101439.63;;;11.69;91.75
72120;BME280;59993;53.052;18.576;2022-09-02T19:40:17;101437.75;;;11.57;91.77
72120;BME280;59993;53.052;18.576;2022-09-02T19:42:43;101445.63;;;11.59;91.97
72120;BME280;59993;53.052;18.576;2022-09-02T19:47:58;101444.06;;;11.40;93.70
72120;BME280;59993;53.052;18.576;2022-09-02T19:50:27;101452.19;;;11.37;93.45
72120;BME280;59993;53.052;18.576;2022-09-02T19:52:58;101447.25;;;11.31;94.19
72120;BME280;59993;53.052;18.576;2022-09-02T19:55:29;101443.28;;;11.24;94.21
72120;BME280;59993;53.052;18.576;2022-09-02T19:58:00;101444.22;;;11.23;93.11
72120;BME280;59993;53.052;18.576;2022-09-02T20:00:40;101451.34;;;11.22;93.04
72120;BME280;59993;53.052;18.576;2022-09-02T20:03:07;101458.44;;;11.22;92.78
72120;BME280;59993;53.052;18.576;2022-09-02T20:05:33;101449.47;;;11.38;91.21
72120;BME280;59993;53.052;18.576;2022-09-02T20:07:59;101460.41;;;11.48;91.89
72120;BME280;59993;53.052;18.576;2022-09-02T20:10:27;101454.47;;;11.43;91.86
72120;BME280;59993;53.052;18.576;2022-09-02T20:12:57;101451.75;;;11.45;91.50
72120;BME280;59993;53.052;18.576;2022-09-02T20:15:23;101452.59;;;11.60;91.62
72120;BME280;59993;53.052;18.576;2022-09-02T20:17:51;101454.91;;;11.51;91.40
72120;BME280;59993;53.052;18.576;2022-09-02T20:20:21;101452.69;;;11.44;91.42
72120;BME280;59993;53.052;18.576;2022-09-02T20:22:54;101448.78;;;11.35;91.49
72120;BME280;59993;53.052;18.576;2022-09-02T20:28:57;101453.91;;;11.38;91.13
72120;BME280;59993;53.052;18.576;2022-09-02T20:42:24;101472.13;;;11.30;92.93
72120;BME280;59993;53.052;18.576;2022-09-02T20:45:05;101468.03;;;11.24;92.23
72120;BME280;59993;53.052;18.576;2022-09-02T20:54:03;101483.69;;;11.43;91.88
72120;BME280;59993;53.052;18.576;2022-09-02T20:57:07;101481.03;;;11.29;92.44
72120;BME280;59993;53.052;18.576;2022-09-02T21:00:00;101491.81;;;11.26;93.99
72120;BME280;59993;53.052;18.576;2022-09-02T21:02:41;101475.59;;;11.16;94.44
72120;BME280;59993;53.052;18.576;2022-09-02T21:05:31;101485.88;;;11.06;95.16
72120;BME280;59993;53.052;18.576;2022-09-02T21:08:08;101484.78;;;11.25;95.07
72120;BME280;59993;53.052;18.576;2022-09-02T21:11:06;101492.38;;;11.16;94.93
72120;BME280;59993;53.052;18.576;2022-09-02T21:13:53;101502.16;;;11.30;94.84
72120;BME280;59993;53.052;18.576;2022-09-02T21:16:33;101489.13;;;11.11;96.10
72120;BME280;59993;53.052;18.576;2022-09-02T21:22:30;101490.47;;;11.18;95.89
72120;BME280;59993;53.052;18.576;2022-09-02T21:25:24;101487.81;;;11.18;95.37
72120;BME280;59993;53.052;18.576;2022-09-02T21:28:34;101496.94;;;11.29;95.78
72120;BME280;59993;53.052;18.576;2022-09-02T21:31:16;101478.47;;;11.27;95.47
72120;BME280;59993;53.052;18.576;2022-09-02T21:33:47;101475.06;;;11.25;95.97
72120;BME280;59993;53.052;18.576;2022-09-02T21:36:19;101479.13;;;11.31;96.06
72120;BME280;59993;53.052;18.576;2022-09-02T21:38:47;101484.44;;;11.31;95.27
72120;BME280;59993;53.052;18.576;2022-09-02T21:41:31;101490.28;;;11.22;96.26
72120;BME280;59993;53.052;18.576;2022-09-02T21:44:07;101492.84;;;11.23;95.68
72120;BME280;59993;53.052;18.576;2022-09-02T21:47:02;101490.47;;;11.18;96.00
72120;BME280;59993;53.052;18.576;2022-09-02T21:55:14;101486.81;;;11.05;96.76
72120;BME280;59993;53.052;18.576;2022-09-02T22:01:13;101483.81;;;11.11;96.11
72120;BME280;59993;53.052;18.576;2022-09-02T22:03:50;101481.50;;;11.05;96.41
72120;BME280;59993;53.052;18.576;2022-09-02T22:06:23;101489.53;;;11.19;96.44
72120;BME280;59993;53.052;18.576;2022-09-02T22:11:36;101478.28;;;11.00;96.86
72120;BME280;59993;53.052;18.576;2022-09-02T22:14:17;101490.44;;;11.04;96.65
72120;BME280;59993;53.052;18.576;2022-09-02T22:17:01;101485.59;;;10.96;96.66
72120;BME280;59993;53.052;18.576;2022-09-02T22:19:31;101481.69;;;11.02;96.15
72120;BME280;59993;53.052;18.576;2022-09-02T22:22:08;101486.91;;;11.03;96.13
72120;BME280;59993;53.052;18.576;2022-09-02T22:24:38;101484.78;;;11.10;95.94
72120;BME280;59993;53.052;18.576;2022-09-02T22:27:12;101482.31;;;11.07;95.64
72120;BME280;59993;53.052;18.576;2022-09-02T22:29:45;101486.25;;;11.00;96.13
72120;BME280;59993;53.052;18.576;2022-09-02T22:32:15;101480.50;;;11.08;95.48
72120;BME280;59993;53.052;18.576;2022-09-02T22:34:52;101479.50;;;11.25;94.54
72120;BME280;59993;53.052;18.576;2022-09-02T22:37:28;101488.94;;;11.14;95.00
72120;BME280;59993;53.052;18.576;2022-09-02T22:40:06;101484.16;;;11.05;95.17
72120;BME280;59993;53.052;18.576;2022-09-02T22:42:37;101474.09;;;10.96;95.59
72120;BME280;59993;53.052;18.576;2022-09-02T22:45:10;101476.44;;;11.16;94.32
72120;BME280;59993;53.052;18.576;2022-09-02T22:48:18;101483.31;;;11.35;94.38
72120;BME280;59993;53.052;18.576;2022-09-02T22:51:12;101483.22;;;11.36;93.70
72120;BME280;59993;53.052;18.576;2022-09-02T22:53:58;101477.00;;;11.22;94.88
72120;BME280;59993;53.052;18.576;2022-09-02T22:57:00;101482.31;;;11.07;94.65
72120;BME280;59993;53.052;18.576;2022-09-02T23:08:01;101483.19;;;10.92;94.87
72120;BME280;59993;53.052;18.576;2022-09-02T23:10:27;101473.78;;;10.86;95.59
72120;BME280;59993;53.052;18.576;2022-09-02T23:13:07;101480.19;;;10.82;95.10
72120;BME280;59993;53.052;18.576;2022-09-02T23:16:12;101487.13;;;10.84;95.22
72120;BME280;59993;53.052;18.576;2022-09-02T23:18:42;101488.41;;;10.93;94.69
72120;BME280;59993;53.052;18.576;2022-09-02T23:23:58;101478.47;;;10.81;95.08
72120;BME280;59993;53.052;18.576;2022-09-02T23:29:24;101481.84;;;10.84;95.07
72120;BME280;59993;53.052;18.576;2022-09-02T23:34:58;101479.34;;;10.81;96.07
72120;BME280;59993;53.052;18.576;2022-09-02T23:37:58;101470.75;;;10.62;95.94
72120;BME280;59993;53.052;18.576;2022-09-02T23:40:32;101477.72;;;10.79;95.80
72120;BME280;59993;53.052;18.576;2022-09-02T23:43:14;101479.97;;;10.71;96.47
72120;BME280;59993;53.052;18.576;2022-09-02T23:45:46;101473.09;;;10.82;96.29
72120;BME280;59993;53.052;18.576;2022-09-02T23:54:49;101484.06;;;10.76;96.19
72120;BME280;59993;53.052;18.576;2022-09-02T23:57:32;101498.81;;;10.66;96.81
